ODE weather

Odense Airport
Odense, South Denmark, Denmark

Public forecast

Using degrees Celsius for public forecast. Weather courtesy of forecast.io.

METAR (pilot weather report)

Report is more than 2 hours old.

Retrieved 2019/09/18 14:50 UTC (4 hours ago):

EKOD 181450Z 28018G29KT 9999 FEW038 BKN050 13/09 Q1021

TAF (pilot weather forecast)

Forecast is more than 12 hours old.

Closest forecast is S√łnderborg Airport, 35.9 nm (66.4 km) SSW. Retrieved 2016/01/27 09:03 UTC (4 years ago):

TAF TAF EKSB 270856Z 2709/2721 23022KT 5000 -RA BR BKN008 TEMPO 2709/2721 24025G40KT 2000 RADZ BKN004